createdAt,value
2022-11-05T00:01:55.638Z,80.79
2022-11-05T00:04:41.238Z,79.47
2022-11-05T00:07:34.385Z,78.16
2022-11-05T00:10:05.685Z,79.92
2022-11-05T00:12:51.264Z,79.48
2022-11-05T00:15:36.391Z,79.91
2022-11-05T00:18:03.877Z,79.61
2022-11-05T00:20:30.638Z,78.35
2022-11-05T00:23:24.188Z,78.91
2022-11-05T00:25:54.917Z,78.81
2022-11-05T00:28:21.805Z,79.38
2022-11-05T00:30:49.074Z,78.00
2022-11-05T00:33:16.085Z,78.22
2022-11-05T00:35:43.038Z,78.09
2022-11-05T00:38:09.851Z,79.80
2022-11-05T00:40:37.121Z,80.31
2022-11-05T00:43:22.564Z,82.17
2022-11-05T00:45:49.461Z,81.92
2022-11-05T00:48:35.103Z,81.44
2022-11-05T00:51:01.894Z,81.52
2022-11-05T00:53:28.710Z,80.92
2022-11-05T00:55:55.592Z,81.24
2022-11-05T00:58:23.281Z,80.79
2022-11-05T01:00:56.042Z,79.56
2022-11-05T01:03:26.421Z,79.08
2022-11-05T01:05:56.892Z,80.13
2022-11-05T01:08:25.685Z,80.76
2022-11-05T01:10:55.118Z,79.53
2022-11-05T01:13:27.935Z,79.68
2022-11-05T01:15:56.018Z,79.39
2022-11-05T01:18:24.331Z,79.04
2022-11-05T01:20:51.250Z,79.77
2022-11-05T01:23:19.292Z,79.54
2022-11-05T01:25:46.446Z,80.28
2022-11-05T01:28:13.149Z,81.90
2022-11-05T01:30:40.367Z,82.79
2022-11-05T01:33:07.496Z,82.69
2022-11-05T01:35:34.329Z,81.70
2022-11-05T01:38:01.049Z,82.32
2022-11-05T01:40:28.184Z,81.75
2022-11-05T01:42:54.924Z,80.82
2022-11-05T01:45:27.437Z,81.08
2022-11-05T01:48:00.207Z,80.33
2022-11-05T01:50:45.146Z,79.83
2022-11-05T01:53:24.696Z,79.35
2022-11-05T01:56:00.049Z,80.32
2022-11-05T01:58:32.844Z,80.38
2022-11-05T02:00:59.809Z,80.55
2022-11-05T02:03:27.133Z,80.32
2022-11-05T02:05:56.979Z,80.64
2022-11-05T02:08:56.095Z,81.00
2022-11-05T02:11:23.500Z,80.05
2022-11-05T02:13:50.967Z,80.69
2022-11-05T02:16:46.453Z,82.92
2022-11-05T02:19:50.768Z,82.02
2022-11-05T02:22:20.199Z,82.09
2022-11-05T02:25:04.450Z,82.66
2022-11-05T02:28:10.816Z,81.39
2022-11-05T02:31:03.473Z,80.60
2022-11-05T02:33:43.975Z,80.57
2022-11-05T02:36:38.450Z,80.32
2022-11-05T02:39:36.064Z,80.66
2022-11-05T02:42:10.516Z,80.92
2022-11-05T02:44:40.229Z,80.86
2022-11-05T02:47:22.354Z,79.82
2022-11-05T02:50:17.241Z,81.25
2022-11-05T02:52:56.886Z,81.07
2022-11-05T02:55:45.576Z,81.26
2022-11-05T02:58:12.364Z,81.20
2022-11-05T03:01:00.460Z,80.95
2022-11-05T03:03:34.801Z,80.36
2022-11-05T03:06:22.596Z,80.50
2022-11-05T03:09:47.011Z,80.53
2022-11-05T03:12:38.369Z,80.36
2022-11-05T03:15:31.153Z,81.30
2022-11-05T03:18:00.780Z,80.88
2022-11-05T03:20:37.086Z,81.42
2022-11-05T03:23:03.838Z,81.50
2022-11-05T03:25:32.399Z,81.09
2022-11-05T03:28:06.665Z,81.52
2022-11-05T03:30:35.676Z,81.79
2022-11-05T03:33:13.815Z,81.05
2022-11-05T03:35:47.290Z,81.61
2022-11-05T03:38:19.853Z,80.50
2022-11-05T03:40:49.631Z,81.42
2022-11-05T03:43:19.324Z,80.27
2022-11-05T03:46:07.023Z,80.76
2022-11-05T03:48:38.340Z,81.86
2022-11-05T03:51:17.911Z,81.99
2022-11-05T03:53:50.298Z,81.44
2022-11-05T03:56:23.070Z,81.32
2022-11-05T03:58:54.652Z,81.57
2022-11-05T04:01:25.476Z,80.69
2022-11-05T04:03:52.289Z,80.71
2022-11-05T04:06:37.945Z,79.52
2022-11-05T04:09:23.063Z,80.13
2022-11-05T04:12:08.807Z,81.13
2022-11-05T04:14:35.570Z,80.94
2022-11-05T04:17:11.456Z,80.40
2022-11-05T04:20:04.965Z,80.80
2022-11-05T04:22:52.839Z,80.64
2022-11-05T04:25:21.099Z,80.84
2022-11-05T04:27:48.488Z,81.55
2022-11-05T04:30:20.863Z,81.03
2022-11-05T04:33:01.615Z,82.33
2022-11-05T04:35:37.119Z,81.82
2022-11-05T04:38:06.099Z,81.51
2022-11-05T04:40:32.889Z,80.66
2022-11-05T04:42:59.913Z,81.13
2022-11-05T04:45:28.984Z,82.17
2022-11-05T04:47:55.869Z,81.57
2022-11-05T04:50:23.091Z,80.52
2022-11-05T04:52:50.044Z,80.63
2022-11-05T04:55:16.829Z,80.34
2022-11-05T04:57:43.933Z,81.29
2022-11-05T05:00:11.380Z,81.14
2022-11-05T05:02:38.458Z,81.37
2022-11-05T05:05:05.978Z,82.11
2022-11-05T05:07:35.961Z,82.78
2022-11-05T05:10:04.638Z,82.06
2022-11-05T05:12:32.898Z,82.10
2022-11-05T05:14:59.770Z,82.12
2022-11-05T05:17:26.538Z,81.45
2022-11-05T05:20:11.880Z,81.37
2022-11-05T05:22:38.654Z,81.31
2022-11-05T05:25:05.561Z,82.47
2022-11-05T05:27:32.354Z,82.95
2022-11-05T05:29:59.909Z,81.92
2022-11-05T05:32:27.550Z,82.44
2022-11-05T05:34:54.354Z,83.14
2022-11-05T05:37:21.228Z,82.91
2022-11-05T05:39:48.610Z,81.79
2022-11-05T05:42:15.797Z,81.69
2022-11-05T05:44:42.652Z,82.29
2022-11-05T05:47:09.630Z,82.16
2022-11-05T05:49:36.384Z,82.31
2022-11-05T05:52:03.289Z,81.01
2022-11-05T05:54:33.405Z,81.30
2022-11-05T05:57:00.948Z,81.63
2022-11-05T05:59:27.641Z,82.19
2022-11-05T06:01:54.596Z,82.13
2022-11-05T06:04:21.461Z,82.42
2022-11-05T06:06:48.345Z,81.60
2022-11-05T06:09:15.726Z,80.90
2022-11-05T06:11:42.619Z,82.74
2022-11-05T06:14:11.158Z,82.56
2022-11-05T06:16:39.859Z,82.49
2022-11-05T06:19:07.634Z,82.71
2022-11-05T06:21:35.334Z,82.71
2022-11-05T06:24:03.115Z,83.15
2022-11-05T06:26:30.659Z,83.80
2022-11-05T06:28:57.533Z,83.17
2022-11-05T06:31:24.858Z,83.22
2022-11-05T06:34:14.248Z,83.45
2022-11-05T06:36:41.098Z,82.19
2022-11-05T06:39:11.901Z,82.58
2022-11-05T06:42:03.837Z,82.77
2022-11-05T06:44:26.120Z,82.91
2022-11-05T06:46:52.840Z,83.29
2022-11-05T06:49:19.583Z,83.93
2022-11-05T06:51:56.155Z,83.28
2022-11-05T06:54:42.477Z,83.43
2022-11-05T06:57:24.265Z,83.73
2022-11-05T06:59:54.557Z,83.63
2022-11-05T07:02:24.391Z,82.72
2022-11-05T07:04:51.243Z,82.24
2022-11-05T07:07:18.049Z,82.79
2022-11-05T07:09:44.914Z,82.13
2022-11-05T07:12:11.857Z,82.96
2022-11-05T07:14:38.619Z,83.15
2022-11-05T07:17:05.551Z,83.26
2022-11-05T07:19:32.385Z,83.03
2022-11-05T07:21:59.318Z,83.03
2022-11-05T07:24:26.193Z,82.57
2022-11-05T07:26:53.024Z,81.24
2022-11-05T07:29:19.796Z,79.83
2022-11-05T07:31:47.085Z,79.83
2022-11-05T07:34:13.830Z,79.50
2022-11-05T07:36:40.735Z,79.66
2022-11-05T07:39:07.547Z,80.83
2022-11-05T07:41:34.476Z,81.14
2022-11-05T07:44:01.198Z,80.30
2022-11-05T07:46:28.043Z,81.05
2022-11-05T07:48:54.785Z,80.99
2022-11-05T07:51:21.805Z,80.22
2022-11-05T07:53:48.674Z,80.65
2022-11-05T07:56:16.073Z,79.97
2022-11-05T07:58:43.100Z,80.90
2022-11-05T08:01:10.149Z,77.77
2022-11-05T08:03:36.995Z,78.14
2022-11-05T08:06:04.358Z,78.93
2022-11-05T08:08:31.595Z,80.33
2022-11-05T08:11:06.760Z,79.49
2022-11-05T08:13:34.347Z,80.78
2022-11-05T08:16:02.049Z,81.31
2022-11-05T08:18:34.467Z,79.17
2022-11-05T08:21:03.889Z,78.14
2022-11-05T08:23:31.792Z,79.58
2022-11-05T08:25:58.990Z,79.61
2022-11-05T08:28:26.801Z,78.68
2022-11-05T08:30:55.633Z,79.43
2022-11-05T08:33:24.016Z,80.13
2022-11-05T08:35:51.021Z,79.96
2022-11-05T08:38:19.349Z,80.13
2022-11-05T08:40:55.042Z,78.97
2022-11-05T08:43:22.620Z,78.48
2022-11-05T08:45:49.692Z,78.95
2022-11-05T08:48:18.612Z,79.00
2022-11-05T08:50:47.889Z,78.00
2022-11-05T08:53:15.369Z,76.17
2022-11-05T08:55:44.010Z,76.01
2022-11-05T08:58:15.021Z,77.27
2022-11-05T09:00:43.573Z,77.45
2022-11-05T09:03:10.931Z,76.58
2022-11-05T09:05:40.047Z,76.38
2022-11-05T09:08:09.034Z,77.09
2022-11-05T09:10:36.460Z,78.23
2022-11-05T09:13:04.436Z,78.99
2022-11-05T09:15:32.256Z,78.12
2022-11-05T09:17:59.733Z,78.27
2022-11-05T09:20:26.517Z,77.89
2022-11-05T09:22:53.298Z,77.07
2022-11-05T09:25:20.514Z,77.55
2022-11-05T09:27:47.260Z,77.71
2022-11-05T09:30:14.293Z,78.55
2022-11-05T09:32:41.349Z,78.66
2022-11-05T09:35:08.981Z,77.93
2022-11-05T09:37:39.171Z,78.64
2022-11-05T09:40:06.851Z,78.20
2022-11-05T09:42:42.472Z,77.01
2022-11-05T09:45:16.940Z,76.73
2022-11-05T09:47:50.954Z,75.82
2022-11-05T09:50:24.424Z,76.31
2022-11-05T09:52:51.613Z,75.47
2022-11-05T09:55:27.981Z,75.85
2022-11-05T09:58:00.673Z,74.83
2022-11-05T10:00:30.577Z,73.91
2022-11-05T10:03:05.166Z,73.66
2022-11-05T10:05:34.217Z,72.24
2022-11-05T10:08:12.796Z,74.41
2022-11-05T10:10:43.112Z,70.51
2022-11-05T10:13:34.008Z,71.45
2022-11-05T10:16:25.726Z,69.19
2022-11-05T10:19:16.807Z,71.97
2022-11-05T10:22:05.569Z,72.11
2022-11-05T10:24:30.874Z,71.40
2022-11-05T10:26:58.042Z,70.47
2022-11-05T10:29:32.527Z,70.44
2022-11-05T10:32:03.227Z,69.72
2022-11-05T10:34:33.804Z,67.75
2022-11-05T10:37:01.008Z,67.27
2022-11-05T10:39:29.400Z,68.57
2022-11-05T10:42:11.581Z,66.51
2022-11-05T10:44:45.262Z,65.47
2022-11-05T10:47:18.008Z,61.14
2022-11-05T10:49:59.959Z,64.41
2022-11-05T10:52:39.463Z,62.29
2022-11-05T10:55:21.015Z,60.27
2022-11-05T10:57:49.709Z,60.78
2022-11-05T11:00:16.659Z,58.90
2022-11-05T11:02:46.543Z,57.78
2022-11-05T11:05:28.503Z,56.91
2022-11-05T11:07:58.356Z,56.58
2022-11-05T11:10:26.297Z,55.99
2022-11-05T11:12:54.020Z,58.83
2022-11-05T11:15:20.655Z,53.80
2022-11-05T11:17:48.037Z,51.34
2022-11-05T11:20:24.065Z,52.96
2022-11-05T11:23:09.871Z,54.79
2022-11-05T11:26:00.756Z,55.06
2022-11-05T11:28:38.142Z,56.54
2022-11-05T11:31:11.859Z,55.83
2022-11-05T11:33:41.191Z,53.60
2022-11-05T11:36:10.219Z,53.37
2022-11-05T11:38:37.841Z,54.08
2022-11-05T11:41:26.677Z,53.72
2022-11-05T11:44:02.578Z,52.57
2022-11-05T11:46:33.338Z,53.84
2022-11-05T11:49:00.150Z,53.00
2022-11-05T11:51:31.867Z,50.53
2022-11-05T11:54:00.483Z,50.90
2022-11-05T11:56:29.155Z,51.77
2022-11-05T11:59:01.334Z,49.72
2022-11-05T12:01:54.031Z,51.19
2022-11-05T12:04:42.258Z,50.67
2022-11-05T12:07:09.119Z,48.47
2022-11-05T12:10:11.158Z,47.39
2022-11-05T12:13:07.492Z,48.24
2022-11-05T12:15:54.120Z,49.65
2022-11-05T12:18:46.993Z,49.57
2022-11-05T12:21:34.665Z,49.45
2022-11-05T12:24:51.495Z,48.77
2022-11-05T12:27:26.823Z,46.52
2022-11-05T12:30:08.803Z,47.46
2022-11-05T12:32:53.707Z,45.77
2022-11-05T12:35:58.210Z,47.54
2022-11-05T12:38:54.244Z,46.77
2022-11-05T12:42:06.939Z,49.15
2022-11-05T12:44:53.370Z,46.29
2022-11-05T12:47:23.080Z,46.17
2022-11-05T12:50:26.785Z,47.09
2022-11-05T12:53:01.627Z,49.22
2022-11-05T12:55:37.059Z,49.74
2022-11-05T12:58:38.708Z,46.73
2022-11-05T13:01:11.342Z,45.19
2022-11-05T13:03:58.903Z,46.19
2022-11-05T13:06:41.989Z,46.38
2022-11-05T13:09:41.225Z,47.08
2022-11-05T13:12:13.590Z,46.21
2022-11-05T13:15:00.661Z,47.07
2022-11-05T13:17:33.897Z,47.74
2022-11-05T13:20:06.560Z,48.66
2022-11-05T13:22:40.388Z,44.24
2022-11-05T13:25:19.874Z,44.18
2022-11-05T13:28:01.683Z,43.96
2022-11-05T13:30:34.230Z,44.99
2022-11-05T13:33:07.789Z,45.44
2022-11-05T13:36:20.414Z,43.34
2022-11-05T13:39:19.080Z,44.15
2022-11-05T13:42:01.785Z,46.02
2022-11-05T13:44:31.754Z,43.98
2022-11-05T13:47:19.576Z,44.39
2022-11-05T13:50:21.218Z,44.60
2022-11-05T13:53:32.670Z,44.06
2022-11-05T13:56:03.031Z,45.14
2022-11-05T13:59:01.539Z,44.42
2022-11-05T14:01:43.818Z,43.57
2022-11-05T14:04:31.837Z,43.33
2022-11-05T14:07:36.598Z,45.79
2022-11-05T14:10:27.840Z,46.04
2022-11-05T14:12:56.664Z,45.96
2022-11-05T14:15:29.657Z,45.66
2022-11-05T14:18:00.868Z,47.20
2022-11-05T14:20:30.262Z,45.88
2022-11-05T14:23:23.155Z,44.46
2022-11-05T14:26:21.191Z,45.08
2022-11-05T14:29:03.056Z,46.25
2022-11-05T14:32:07.910Z,45.87
2022-11-05T14:34:45.454Z,46.14
2022-11-05T14:37:12.642Z,46.81
2022-11-05T14:39:41.056Z,46.69
2022-11-05T14:42:16.394Z,46.76
2022-11-05T14:45:19.679Z,47.80
2022-11-05T14:47:59.343Z,48.15
2022-11-05T14:50:38.151Z,46.20
2022-11-05T14:53:26.665Z,46.76
2022-11-05T14:56:04.353Z,46.99
2022-11-05T14:58:32.884Z,48.34
2022-11-05T15:01:14.499Z,49.15
2022-11-05T15:03:46.212Z,48.67
2022-11-05T15:06:29.056Z,49.04
2022-11-05T15:09:04.935Z,48.80
2022-11-05T15:11:37.813Z,48.53
2022-11-05T15:14:31.088Z,49.19
2022-11-05T15:17:08.938Z,50.37
2022-11-05T15:19:38.600Z,51.29
2022-11-05T15:22:12.427Z,51.78
2022-11-05T15:24:42.736Z,51.57
2022-11-05T15:27:22.664Z,51.96
2022-11-05T15:29:49.554Z,52.30
2022-11-05T15:32:18.463Z,52.78
2022-11-05T15:34:55.944Z,53.53
2022-11-05T15:37:25.529Z,54.64
2022-11-05T15:39:54.670Z,55.06
2022-11-05T15:42:26.477Z,55.75
2022-11-05T15:45:00.169Z,57.59
2022-11-05T15:47:30.596Z,56.57
2022-11-05T15:49:57.609Z,57.75
2022-11-05T15:52:32.104Z,58.68
2022-11-05T15:55:14.628Z,59.49
2022-11-05T15:57:51.340Z,59.74
2022-11-05T16:00:26.843Z,61.91
2022-11-05T16:02:58.785Z,60.74
2022-11-05T16:05:28.529Z,61.00
2022-11-05T16:07:59.174Z,59.83
2022-11-05T16:10:32.326Z,59.21
2022-11-05T16:13:23.549Z,58.72
2022-11-05T16:15:55.638Z,60.03
2022-11-05T16:18:24.495Z,59.61
2022-11-05T16:21:02.216Z,60.86
2022-11-05T16:23:41.955Z,60.43
2022-11-05T16:29:29.693Z,61.96
2022-11-05T16:31:57.964Z,61.37
2022-11-05T16:34:28.338Z,61.84
2022-11-05T16:36:57.893Z,62.32
2022-11-05T16:39:25.625Z,64.41
2022-11-05T16:41:52.944Z,64.24
2022-11-05T16:44:19.978Z,64.09
2022-11-05T16:46:49.133Z,64.58
2022-11-05T16:49:17.620Z,64.02
2022-11-05T16:51:46.573Z,64.77
2022-11-05T16:54:14.002Z,63.38
2022-11-05T16:56:43.020Z,65.02
2022-11-05T16:59:13.363Z,65.42
2022-11-05T17:01:42.398Z,65.76
2022-11-05T17:04:13.057Z,64.01
2022-11-05T17:06:39.905Z,65.23
2022-11-05T17:09:07.439Z,65.56
2022-11-05T17:11:34.406Z,65.11
2022-11-05T17:14:01.293Z,64.94
2022-11-05T17:16:28.267Z,66.80
2022-11-05T17:18:55.184Z,67.14
2022-11-05T17:21:22.250Z,66.08
2022-11-05T17:23:49.229Z,67.07
2022-11-05T17:26:16.248Z,67.30
2022-11-05T17:28:43.342Z,66.65
2022-11-05T17:31:17.389Z,67.04
2022-11-05T17:33:45.081Z,67.76
2022-11-05T17:36:14.932Z,67.38
2022-11-05T17:38:42.226Z,67.70
2022-11-05T17:41:13.281Z,67.73
2022-11-05T17:43:40.796Z,68.31
2022-11-05T17:46:09.691Z,68.04
2022-11-05T17:48:38.336Z,68.18
2022-11-05T17:51:09.544Z,69.05
2022-11-05T17:53:37.470Z,69.58
2022-11-05T17:56:09.589Z,69.16
2022-11-05T17:58:37.406Z,69.05
2022-11-05T18:01:05.442Z,69.16
2022-11-05T18:03:32.911Z,69.50
2022-11-05T18:06:06.839Z,69.67
2022-11-05T18:08:36.393Z,67.77
2022-11-05T18:11:03.481Z,69.12
2022-11-05T18:13:34.073Z,67.15
2022-11-05T18:16:01.168Z,68.77
2022-11-05T18:18:28.006Z,67.48
2022-11-05T18:20:58.928Z,67.99
2022-11-05T18:23:26.354Z,68.04
2022-11-05T18:25:53.272Z,65.04
2022-11-05T18:28:20.391Z,67.55
2022-11-05T18:30:47.290Z,67.17
2022-11-05T18:33:14.401Z,67.32
2022-11-05T18:35:45.177Z,67.12
2022-11-05T18:38:12.500Z,66.99
2022-11-05T18:40:39.770Z,65.14
2022-11-05T18:43:08.883Z,65.27
2022-11-05T18:45:35.825Z,65.97
2022-11-05T18:48:03.309Z,67.87
2022-11-05T18:50:32.249Z,67.86
2022-11-05T18:52:59.118Z,64.89
2022-11-05T18:55:25.996Z,65.48
2022-11-05T18:57:52.898Z,64.94
2022-11-05T19:00:29.573Z,66.57
2022-11-05T19:02:57.091Z,66.74
2022-11-05T19:05:31.386Z,65.20
2022-11-05T19:07:58.637Z,65.54
2022-11-05T19:10:26.016Z,65.21
2022-11-05T19:12:53.162Z,65.83
2022-11-05T19:15:20.106Z,64.42
2022-11-05T19:17:47.021Z,64.42
2022-11-05T19:20:14.009Z,64.96
2022-11-05T19:22:40.878Z,65.37
2022-11-05T19:25:08.233Z,65.85
2022-11-05T19:27:35.776Z,64.59
2022-11-05T19:30:03.019Z,64.22
2022-11-05T19:32:29.818Z,64.87
2022-11-05T19:34:56.530Z,65.46
2022-11-05T19:37:23.440Z,66.48
2022-11-05T19:39:50.231Z,65.03
2022-11-05T19:42:17.066Z,65.26
2022-11-05T19:44:44.171Z,65.77
2022-11-05T19:47:11.114Z,64.26
2022-11-05T19:49:37.912Z,65.43
2022-11-05T19:52:04.933Z,66.47
2022-11-05T19:54:31.762Z,66.07
2022-11-05T19:56:58.831Z,63.93
2022-11-05T19:59:25.813Z,67.39
2022-11-05T20:01:52.744Z,65.29
2022-11-05T20:04:19.673Z,65.34
2022-11-05T20:06:46.473Z,65.18
2022-11-05T20:09:22.985Z,66.63
2022-11-05T20:11:54.543Z,66.62
2022-11-05T20:14:23.023Z,65.54
2022-11-05T20:16:50.285Z,63.19
2022-11-05T20:19:19.720Z,65.44
2022-11-05T20:21:46.989Z,65.24
2022-11-05T20:24:23.307Z,65.00
2022-11-05T20:26:52.331Z,64.55
2022-11-05T20:29:19.474Z,65.04
2022-11-05T20:31:47.048Z,65.45
2022-11-05T20:34:13.898Z,64.75
2022-11-05T20:36:41.417Z,65.66
2022-11-05T20:39:08.291Z,66.24
2022-11-05T20:41:35.117Z,67.68
2022-11-05T20:44:02.003Z,67.42
2022-11-05T20:46:28.959Z,66.74
2022-11-05T20:48:56.162Z,67.65
2022-11-05T20:51:25.144Z,64.93
2022-11-05T20:53:57.366Z,66.11
2022-11-05T20:56:27.365Z,67.61
2022-11-05T20:58:57.925Z,68.45
2022-11-05T21:01:26.344Z,66.76
2022-11-05T21:03:53.484Z,68.72
2022-11-05T21:06:20.381Z,65.96
2022-11-05T21:08:48.769Z,66.80
2022-11-05T21:11:16.230Z,66.55
2022-11-05T21:13:43.152Z,67.91
2022-11-05T21:16:15.437Z,67.11
2022-11-05T21:18:45.014Z,68.17
2022-11-05T21:21:16.040Z,66.91
2022-11-05T21:23:43.091Z,67.87
2022-11-05T21:26:13.388Z,66.76
2022-11-05T21:28:41.608Z,67.98
2022-11-05T21:31:10.828Z,68.66
2022-11-05T21:33:37.806Z,67.12
2022-11-05T21:36:10.829Z,66.39
2022-11-05T21:38:38.173Z,66.25
2022-11-05T21:41:05.848Z,66.49
2022-11-05T21:43:33.352Z,67.74
2022-11-05T21:46:02.069Z,68.21
2022-11-05T21:48:29.239Z,68.06
2022-11-05T21:51:14.873Z,66.67
2022-11-05T21:54:01.752Z,66.80
2022-11-05T21:56:50.407Z,66.89
2022-11-05T21:59:38.753Z,66.71
2022-11-05T22:02:09.960Z,66.90
2022-11-05T22:04:41.908Z,69.13
2022-11-05T22:07:10.363Z,68.78
2022-11-05T22:09:37.736Z,66.57
2022-11-05T22:12:05.012Z,66.34
2022-11-05T22:14:32.409Z,66.18
2022-11-05T22:16:59.339Z,67.39
2022-11-05T22:19:26.652Z,68.40
2022-11-05T22:21:53.930Z,69.19
2022-11-05T22:24:20.961Z,68.51
2022-11-05T22:26:48.370Z,66.96
2022-11-05T22:29:15.709Z,66.70
2022-11-05T22:31:43.061Z,67.82
2022-11-05T22:34:10.240Z,68.24
2022-11-05T22:36:37.626Z,68.65
2022-11-05T22:39:05.580Z,68.26
2022-11-05T22:41:32.975Z,68.51
2022-11-05T22:43:59.800Z,69.32
2022-11-05T22:46:27.553Z,69.73
2022-11-05T22:48:56.302Z,68.01
2022-11-05T22:51:25.847Z,68.96
2022-11-05T22:53:53.429Z,68.87
2022-11-05T22:56:22.525Z,69.72
2022-11-05T22:58:49.885Z,69.43
2022-11-05T23:01:17.627Z,68.42
2022-11-05T23:03:46.332Z,67.63
2022-11-05T23:06:39.204Z,68.09
2022-11-05T23:09:31.830Z,67.84
2022-11-05T23:11:59.444Z,70.00
2022-11-05T23:14:27.448Z,69.01
2022-11-05T23:17:13.646Z,69.10
2022-11-05T23:19:59.690Z,70.08
2022-11-05T23:22:48.310Z,71.12
2022-11-05T23:25:20.553Z,70.34
2022-11-05T23:27:49.559Z,69.91
2022-11-05T23:30:20.152Z,70.57
2022-11-05T23:32:47.140Z,71.40
2022-11-05T23:35:14.747Z,72.30
2022-11-05T23:38:01.029Z,71.98
2022-11-05T23:40:30.846Z,71.28
2022-11-05T23:43:16.599Z,71.67
2022-11-05T23:46:03.389Z,71.29
2022-11-05T23:48:30.279Z,71.45
2022-11-05T23:51:01.127Z,72.48
2022-11-05T23:53:30.496Z,71.04
2022-11-05T23:56:23.346Z,71.46
2022-11-05T23:58:50.181Z,71.32
